NORTHEAST SUFFOLK  -  Frost Advisory Frost Advisory        NORTHWEST SUFFOLK  -  Frost Advisory Frost Advisory        SOUTHEAST SUFFOLK  -  Frost Advisory Frost Advisory        SOUTHWEST SUFFOLK  -  Frost Advisory Frost Advisory      

Active alerts

Northwest Suffolk
  Details for Northwest Suffolk Frost Advisory
Southwest Suffolk
  Details for Southwest Suffolk Frost Advisory
Northeast Suffolk
  Details for Northeast Suffolk Frost Advisory
Southeast Suffolk
  Details for Southeast Suffolk Frost Advisory


WXM80 ListenWXM80 Stop

You find our weather info also at:

UK Metoffice

WeatherCloud

Weather Underground

Northeastern Weather Network

AWEKAS

Citizen Weather Observer Program (CWOP)

HAMweather, WeatherForYou, PWS Weather


Weather Underground History page Text

Daily Summary for October 24, 2017 Units:  Both    English   Metric
« Previous Day
Next Day »
Daily Weekly Monthly Yearly Custom
  High: Low: Average:
Temperature: 75.6 °F /  24.2 °C 66.7 °F /  19.3 °C 70 °F /  21.1 °C
Dew Point: 69.5 °F /  20.8 °C 65.5 °F /  18.6 °C 67.2 °F /  19.6 °C
Humidity: 98 % 80 % 91 %
Wind Speed: 14.1 mph /  22.7 km/h - 4.8 mph /  7.7 km/h
Wind Gust: 31.1 mph /  50 km/h - -
Wind:- - South
Pressure: 30.01 in /  1016.1 hPa 29.75 in /  1007.3 hPa -
Precipitation: 2.34 in /  59.44 mm    
Historical Graphs
 
 
Tabular Data for October 24, 2017
Time Temperature Dew Point Pressure Wind Wind Speed Wind Gust Humidity Rainfall Rate (Hourly)
00:01 70.3 °F /  21.3 °C 65.9 °F /  18.8 °C 30.01 in /  1016.1 hPa SE 2.9 mph /  4.7 km/h 13.0 mph /  20.9 km/h 86 % 0.00 in /  0 mm
00:06 70.4 °F /  21.3 °C 66.0 °F /  18.9 °C 30.00 in /  1015.8 hPa SSE 6.0 mph /  9.7 km/h 11.5 mph /  18.5 km/h 86 % 0.00 in /  0 mm
00:11 70.4 °F /  21.3 °C 65.7 °F /  18.7 °C 30.00 in /  1015.8 hPa SE 9.9 mph /  15.9 km/h 13.0 mph /  20.9 km/h 85 % 0.00 in /  0 mm
00:16 70.5 °F /  21.4 °C 65.8 °F /  18.8 °C 29.99 in /  1015.5 hPa SSE 7.2 mph /  11.6 km/h 15.0 mph /  24.1 km/h 85 % 0.00 in /  0 mm
00:21 70.5 °F /  21.4 °C 65.8 °F /  18.8 °C 30.00 in /  1015.8 hPa SSE 7.5 mph /  12.1 km/h 11.5 mph /  18.5 km/h 85 % 0.00 in /  0 mm
00:26 70.5 °F /  21.4 °C 66.1 °F /  18.9 °C 30.00 in /  1015.8 hPa South 5.2 mph /  8.4 km/h 9.2 mph /  14.8 km/h 86 % 0.00 in /  0 mm
00:31 70.5 °F /  21.4 °C 65.8 °F /  18.8 °C 29.99 in /  1015.5 hPa SE 5.8 mph /  9.3 km/h 11.5 mph /  18.5 km/h 85 % 0.00 in /  0 mm
00:36 70.5 °F /  21.4 °C 65.8 °F /  18.8 °C 29.99 in /  1015.5 hPa South 2.0 mph /  3.2 km/h 4.6 mph /  7.4 km/h 85 % 0.00 in /  0 mm
00:41 70.4 °F /  21.3 °C 65.7 °F /  18.7 °C 29.98 in /  1015.1 hPa SE 5.7 mph /  9.2 km/h 9.2 mph /  14.8 km/h 85 % 0.00 in /  0 mm
00:52 70.3 °F /  21.3 °C 65.9 °F /  18.8 °C 29.99 in /  1015.5 hPa SE 4.8 mph /  7.7 km/h 7.0 mph /  11.3 km/h 86 % 0.00 in /  0 mm
00:57 70.3 °F /  21.3 °C 65.9 °F /  18.8 °C 29.99 in /  1015.5 hPa South 3.2 mph /  5.1 km/h 10.4 mph /  16.7 km/h 86 % 0.00 in /  0 mm
01:02 70.2 °F /  21.2 °C 65.8 °F /  18.8 °C 29.99 in /  1015.5 hPa SSE 4.0 mph /  6.4 km/h 8.1 mph /  13 km/h 86 % 0.00 in /  0 mm
01:07 70.2 °F /  21.2 °C 65.8 °F /  18.8 °C 30.00 in /  1015.8 hPa SSW 7.5 mph /  12.1 km/h 15.0 mph /  24.1 km/h 86 % 0.00 in /  0 mm
01:12 70.2 °F /  21.2 °C 66.1 °F /  18.9 °C 29.99 in /  1015.5 hPa SSW 11.5 mph /  18.5 km/h 19.6 mph /  31.5 km/h 87 % 0.00 in /  0 mm
01:17 70.2 °F /  21.2 °C 66.1 °F /  18.9 °C 29.99 in /  1015.5 hPa SE 5.9 mph /  9.5 km/h 15.0 mph /  24.1 km/h 87 % 0.00 in /  0 mm
01:22 70.1 °F /  21.2 °C 66.0 °F /  18.9 °C 29.98 in /  1015.1 hPa SSE 4.3 mph /  6.9 km/h 6.9 mph /  11.1 km/h 87 % 0.00 in /  0 mm
01:27 70.1 °F /  21.2 °C 66.0 °F /  18.9 °C 29.99 in /  1015.5 hPa SE 6.4 mph /  10.3 km/h 18.4 mph /  29.6 km/h 87 % 0.00 in /  0 mm
01:32 70.1 °F /  21.2 °C 66.0 °F /  18.9 °C 29.99 in /  1015.5 hPa SSW 5.5 mph /  8.9 km/h 10.0 mph /  16.1 km/h 87 % 0.00 in /  0 mm
01:37 70.0 °F /  21.1 °C 66.0 °F /  18.9 °C 29.99 in /  1015.5 hPa SE 1.5 mph /  2.4 km/h 9.2 mph /  14.8 km/h 87 % 0.00 in /  0 mm
01:42 70.0 °F /  21.1 °C 66.0 °F /  18.9 °C 29.99 in /  1015.5 hPa SE 5.4 mph /  8.7 km/h 17.3 mph /  27.8 km/h 87 % 0.00 in /  0 mm
01:44 70.0 °F /  21.1 °C 66.0 °F /  18.9 °C 29.98 in /  1015.1 hPa South 2.0 mph /  3.2 km/h 12.7 mph /  20.4 km/h 87 % 0.00 in /  0 mm
01:49 70.0 °F /  21.1 °C 66.0 °F /  18.9 °C 29.99 in /  1015.5 hPa South 3.9 mph /  6.3 km/h 8.1 mph /  13 km/h 87 % 0.00 in /  0 mm
01:54 69.9 °F /  21.1 °C 65.9 °F /  18.8 °C 29.99 in /  1015.5 hPa SE 4.4 mph /  7.1 km/h 8.1 mph /  13 km/h 87 % 0.00 in /  0 mm
01:59 69.8 °F /  21 °C 66.1 °F /  18.9 °C 29.99 in /  1015.5 hPa South 5.4 mph /  8.7 km/h 8.1 mph /  13 km/h 88 % 0.00 in /  0 mm
02:04 69.8 °F /  21 °C 66.1 °F /  18.9 °C 29.99 in /  1015.5 hPa South 4.2 mph /  6.8 km/h 10.4 mph /  16.7 km/h 88 % 0.00 in /  0 mm
02:09 69.7 °F /  20.9 °C 66.0 °F /  18.9 °C 29.99 in /  1015.5 hPa South 4.3 mph /  6.9 km/h 6.0 mph /  9.7 km/h 88 % 0.00 in /  0 mm
02:14 69.6 °F /  20.9 °C 65.9 °F /  18.8 °C 29.99 in /  1015.5 hPa South 5.0 mph /  8 km/h 8.1 mph /  13 km/h 88 % 0.00 in /  0 mm
02:19 69.6 °F /  20.9 °C 65.9 °F /  18.8 °C 29.99 in /  1015.5 hPa SSE 3.6 mph /  5.8 km/h 9.0 mph /  14.5 km/h 88 % 0.00 in /  0 mm
02:24 69.5 °F /  20.8 °C 66.1 °F /  18.9 °C 29.99 in /  1015.5 hPa SSW 5.2 mph /  8.4 km/h 11.5 mph /  18.5 km/h 89 % 0.00 in /  0 mm
02:29 69.4 °F /  20.8 °C 66.0 °F /  18.9 °C 29.99 in /  1015.5 hPa SSE 3.5 mph /  5.6 km/h 11.5 mph /  18.5 km/h 89 % 0.00 in /  0 mm
02:34 69.4 °F /  20.8 °C 66.0 °F /  18.9 °C 29.98 in /  1015.1 hPa SSE 3.5 mph /  5.6 km/h 10.4 mph /  16.7 km/h 89 % 0.00 in /  0 mm
02:40 69.4 °F /  20.8 °C 66.0 °F /  18.9 °C 29.98 in /  1015.1 hPa SSE 9.2 mph /  14.8 km/h 16.1 mph /  25.9 km/h 89 % 0.00 in /  0 mm
02:45 69.3 °F /  20.7 °C 65.9 °F /  18.8 °C 29.98 in /  1015.1 hPa South 1.9 mph /  3.1 km/h 9.2 mph /  14.8 km/h 89 % 0.00 in /  0 mm
02:50 69.3 °F /  20.7 °C 66.2 °F /  19 °C 29.97 in /  1014.8 hPa SE 3.2 mph /  5.1 km/h 11.5 mph /  18.5 km/h 90 % 0.00 in /  0 mm
02:55 69.3 °F /  20.7 °C 66.2 °F /  19 °C 29.97 in /  1014.8 hPa South 0.3 mph /  0.5 km/h 2.3 mph /  3.7 km/h 90 % 0.00 in /  0 mm
03:00 69.3 °F /  20.7 °C 66.2 °F /  19 °C 29.97 in /  1014.8 hPa SE 1.5 mph /  2.4 km/h 18.4 mph /  29.6 km/h 90 % 0.00 in /  0 mm
03:05 69.3 °F /  20.7 °C 66.6 °F /  19.2 °C 29.97 in /  1014.8 hPa SSE 4.2 mph /  6.8 km/h 9.0 mph /  14.5 km/h 91 % 0.00 in /  0 mm
03:10 69.3 °F /  20.7 °C 66.6 °F /  19.2 °C 29.96 in /  1014.4 hPa SSE 2.6 mph /  4.2 km/h 11.5 mph /  18.5 km/h 91 % 0.00 in /  0 mm
03:15 69.3 °F /  20.7 °C 66.6 °F /  19.2 °C 29.96 in /  1014.4 hPa SE 5.9 mph /  9.5 km/h 13.8 mph /  22.2 km/h 91 % 0.00 in /  0 mm
03:20 69.3 °F /  20.7 °C 66.6 °F /  19.2 °C 29.95 in /  1014.1 hPa SSE 5.4 mph /  8.7 km/h 10.0 mph /  16.1 km/h 91 % 0.00 in /  0 mm
03:25 69.2 °F /  20.7 °C 66.5 °F /  19.2 °C 29.95 in /  1014.1 hPa South 5.9 mph /  9.5 km/h 13.8 mph /  22.2 km/h 91 % 0.00 in /  0 mm
03:30 69.2 °F /  20.7 °C 66.5 °F /  19.2 °C 29.94 in /  1013.8 hPa East 3.6 mph /  5.8 km/h 3.6 mph /  5.8 km/h 91 % 0.00 in /  0 mm
03:35 69.2 °F /  20.7 °C 66.5 °F /  19.2 °C 29.93 in /  1013.4 hPa SE 6.1 mph /  9.8 km/h 11.5 mph /  18.5 km/h 91 % 0.00 in /  0 mm
03:40 69.1 °F /  20.6 °C 66.4 °F /  19.1 °C 29.92 in /  1013.1 hPa SSE 2.6 mph /  4.2 km/h 9.0 mph /  14.5 km/h 91 % 0.00 in /  0 mm
03:45 69.0 °F /  20.6 °C 66.3 °F /  19.1 °C 29.92 in /  1013.1 hPa SSE 4.6 mph /  7.4 km/h 12.7 mph /  20.4 km/h 91 % 0.00 in /  0 mm
03:50 69.0 °F /  20.6 °C 66.3 °F /  19.1 °C 29.92 in /  1013.1 hPa SSW 0.1 mph /  0.2 km/h 11.5 mph /  18.5 km/h 91 % 0.00 in /  0 mm
03:56 68.9 °F /  20.5 °C 66.5 °F /  19.2 °C 29.92 in /  1013.1 hPa SSE 7.0 mph /  11.3 km/h 14.0 mph /  22.5 km/h 92 % 0.00 in /  0 mm
04:01 68.9 °F /  20.5 °C 66.5 °F /  19.2 °C 29.92 in /  1013.1 hPa SSW 2.2 mph /  3.5 km/h 6.9 mph /  11.1 km/h 92 % 0.00 in /  0 mm
04:06 68.9 °F /  20.5 °C 66.5 °F /  19.2 °C 29.91 in /  1012.8 hPa South 3.0 mph /  4.8 km/h 12.0 mph /  19.3 km/h 92 % 0.00 in /  0 mm
04:11 68.9 °F /  20.5 °C 66.5 °F /  19.2 °C 29.92 in /  1013.1 hPa South 9.3 mph /  15 km/h 18.4 mph /  29.6 km/h 92 % 0.00 in /  0 mm
04:16 68.9 °F /  20.5 °C 66.5 °F /  19.2 °C 29.91 in /  1012.8 hPa SE 3.1 mph /  5 km/h 10.4 mph /  16.7 km/h 92 % 0.00 in /  0 mm
04:21 68.9 °F /  20.5 °C 66.5 °F /  19.2 °C 29.91 in /  1012.8 hPa SE 2.4 mph /  3.9 km/h 4.6 mph /  7.4 km/h 92 % 0.00 in /  0 mm
04:26 68.8 °F /  20.4 °C 66.4 °F /  19.1 °C 29.90 in /  1012.4 hPa SSE 5.0 mph /  8 km/h 11.5 mph /  18.5 km/h 92 % 0.00 in /  0 mm
04:32 68.9 °F /  20.5 °C 66.5 °F /  19.2 °C 29.90 in /  1012.4 hPa SSE 6.4 mph /  10.3 km/h 13.8 mph /  22.2 km/h 92 % 0.00 in /  0 mm
04:37 68.9 °F /  20.5 °C 66.5 °F /  19.2 °C 29.90 in /  1012.4 hPa SSE 3.4 mph /  5.5 km/h 6.9 mph /  11.1 km/h 92 % 0.00 in /  0 mm
04:42 68.9 °F /  20.5 °C 66.5 °F /  19.2 °C 29.89 in /  1012.1 hPa SSE 5.2 mph /  8.4 km/h 8.1 mph /  13 km/h 92 % 0.00 in /  0 mm
04:47 69.0 °F /  20.6 °C 66.6 °F /  19.2 °C 29.89 in /  1012.1 hPa South 5.9 mph /  9.5 km/h 18.4 mph /  29.6 km/h 92 % 0.00 in /  0 mm
04:52 69.2 °F /  20.7 °C 66.8 °F /  19.3 °C 29.89 in /  1012.1 hPa SSW 6.4 mph /  10.3 km/h 11.5 mph /  18.5 km/h 92 % 0.00 in /  0 mm
04:57 69.3 °F /  20.7 °C 66.6 °F /  19.2 °C 29.88 in /  1011.7 hPa ESE 9.3 mph /  15 km/h 15.0 mph /  24.1 km/h 91 % 0.00 in /  0 mm
05:02 69.3 °F /  20.7 °C 66.6 °F /  19.2 °C 29.87 in /  1011.4 hPa SSE 4.0 mph /  6.4 km/h 21.9 mph /  35.2 km/h 91 % 0.00 in /  0 mm
05:07 69.4 °F /  20.8 °C 66.7 °F /  19.3 °C 29.87 in /  1011.4 hPa East 6.3 mph /  10.1 km/h 11.5 mph /  18.5 km/h 91 % 0.00 in /  0 mm
05:12 69.5 °F /  20.8 °C 66.8 °F /  19.3 °C 29.87 in /  1011.4 hPa South 6.4 mph /  10.3 km/h 20.7 mph /  33.3 km/h 91 % 0.00 in /  0 mm
05:17 69.6 °F /  20.9 °C 66.9 °F /  19.4 °C 29.87 in /  1011.4 hPa South 9.1 mph /  14.6 km/h 11.0 mph /  17.7 km/h 91 % 0.00 in /  0 mm
05:22 69.7 °F /  20.9 °C 67.0 °F /  19.4 °C 29.88 in /  1011.7 hPa SSE 4.6 mph /  7.4 km/h 12.7 mph /  20.4 km/h 91 % 0.00 in /  0 mm
05:28 69.7 °F /  20.9 °C 67.0 °F /  19.4 °C 29.88 in /  1011.7 hPa SE 7.7 mph /  12.4 km/h 13.0 mph /  20.9 km/h 91 % 0.00 in /  0 mm
05:33 69.8 °F /  21 °C 67.1 °F /  19.5 °C 29.88 in /  1011.7 hPa South 5.2 mph /  8.4 km/h 16.1 mph /  25.9 km/h 91 % 0.00 in /  0 mm
05:38 69.9 °F /  21.1 °C 67.2 °F /  19.6 °C 29.88 in /  1011.7 hPa SSE 6.0 mph /  9.7 km/h 18.4 mph /  29.6 km/h 91 % 0.00 in /  0 mm
05:43 70.1 °F /  21.2 °C 67.0 °F /  19.4 °C 29.89 in /  1012.1 hPa SSE 8.9 mph /  14.3 km/h 16.1 mph /  25.9 km/h 90 % 0.00 in /  0 mm
05:48 70.2 °F /  21.2 °C 67.1 °F /  19.5 °C 29.89 in /  1012.1 hPa SE 5.9 mph /  9.5 km/h 13.8 mph /  22.2 km/h 90 % 0.00 in /  0 mm
05:53 70.2 °F /  21.2 °C 67.1 °F /  19.5 °C 29.89 in /  1012.1 hPa South 6.4 mph /  10.3 km/h 16.1 mph /  25.9 km/h 90 % 0.00 in /  0 mm
05:58 70.4 °F /  21.3 °C 67.0 °F /  19.4 °C 29.89 in /  1012.1 hPa SE 9.8 mph /  15.8 km/h 17.3 mph /  27.8 km/h 89 % 0.00 in /  0 mm
06:03 70.5 °F /  21.4 °C 67.1 °F /  19.5 °C 29.89 in /  1012.1 hPa SSE 5.9 mph /  9.5 km/h 16.1 mph /  25.9 km/h 89 % 0.00 in /  0 mm
06:08 70.6 °F /  21.4 °C 67.2 °F /  19.6 °C 29.89 in /  1012.1 hPa SE 4.3 mph /  6.9 km/h 9.2 mph /  14.8 km/h 89 % 0.00 in /  0 mm
06:13 70.7 °F /  21.5 °C 67.3 °F /  19.6 °C 29.89 in /  1012.1 hPa SSE 9.7 mph /  15.6 km/h 13.8 mph /  22.2 km/h 89 % 0.00 in /  0 mm
06:18 70.7 °F /  21.5 °C 67.0 °F /  19.4 °C 29.89 in /  1012.1 hPa South 7.6 mph /  12.2 km/h 10.4 mph /  16.7 km/h 88 % 0.00 in /  0 mm
06:23 70.7 °F /  21.5 °C 67.0 °F /  19.4 °C 29.88 in /  1011.7 hPa SSE 4.4 mph /  7.1 km/h 15.0 mph /  24.1 km/h 88 % 0.00 in /  0 mm
06:29 70.8 °F /  21.6 °C 67.1 °F /  19.5 °C 29.89 in /  1012.1 hPa South 3.7 mph /  6 km/h 19.6 mph /  31.5 km/h 88 % 0.00 in /  0 mm
06:34 70.7 °F /  21.5 °C 67.0 °F /  19.4 °C 29.88 in /  1011.7 hPa SSE 8.8 mph /  14.2 km/h 12.7 mph /  20.4 km/h 88 % 0.00 in /  0 mm
06:39 70.8 °F /  21.6 °C 67.1 °F /  19.5 °C 29.88 in /  1011.7 hPa SSE 7.1 mph /  11.4 km/h 18.4 mph /  29.6 km/h 88 % 0.00 in /  0 mm
06:44 70.8 °F /  21.6 °C 67.1 °F /  19.5 °C 29.87 in /  1011.4 hPa ESE 8.1 mph /  13 km/h 18.4 mph /  29.6 km/h 88 % 0.00 in /  0 mm
06:49 70.8 °F /  21.6 °C 67.1 °F /  19.5 °C 29.87 in /  1011.4 hPa SSE 11.0 mph /  17.7 km/h 20.7 mph /  33.3 km/h 88 % 0.00 in /  0 mm
06:54 70.8 °F /  21.6 °C 67.1 °F /  19.5 °C 29.86 in /  1011.1 hPa SE 6.0 mph /  9.7 km/h 10.4 mph /  16.7 km/h 88 % 0.00 in /  0 mm
06:59 70.9 °F /  21.6 °C 67.2 °F /  19.6 °C 29.86 in /  1011.1 hPa SSE 3.4 mph /  5.5 km/h 17.3 mph /  27.8 km/h 88 % 0.00 in /  0 mm
07:04 70.9 °F /  21.6 °C 67.2 °F /  19.6 °C 29.86 in /  1011.1 hPa SE 6.5 mph /  10.5 km/h 13.8 mph /  22.2 km/h 88 % 0.00 in /  0 mm
07:09 70.9 °F /  21.6 °C 67.2 °F /  19.6 °C 29.86 in /  1011.1 hPa ESE 9.1 mph /  14.6 km/h 14.0 mph /  22.5 km/h 88 % 0.00 in /  0 mm
07:15 70.9 °F /  21.6 °C 67.2 °F /  19.6 °C 29.86 in /  1011.1 hPa SSW 11.7 mph /  18.8 km/h 24.2 mph /  38.9 km/h 88 % 0.00 in /  0 mm
07:20 71.0 °F /  21.7 °C 67.3 °F /  19.6 °C 29.85 in /  1010.7 hPa SE 7.6 mph /  12.2 km/h 18.4 mph /  29.6 km/h 88 % 0.00 in /  0 mm
07:25 71.0 °F /  21.7 °C 67.3 °F /  19.6 °C 29.86 in /  1011.1 hPa South 4.1 mph /  6.6 km/h 21.9 mph /  35.2 km/h 88 % 0.00 in /  0 mm
07:30 71.0 °F /  21.7 °C 67.3 °F /  19.6 °C 29.86 in /  1011.1 hPa South 8.0 mph /  12.9 km/h 20.0 mph /  32.2 km/h 88 % 0.00 in /  0 mm
07:35 70.9 °F /  21.6 °C 67.2 °F /  19.6 °C 29.86 in /  1011.1 hPa SSW 10.0 mph /  16.1 km/h 18.4 mph /  29.6 km/h 88 % 0.00 in /  0 mm
07:40 71.0 °F /  21.7 °C 67.3 °F /  19.6 °C 29.87 in /  1011.4 hPa South 4.1 mph /  6.6 km/h 10.4 mph /  16.7 km/h 88 % 0.00 in /  0 mm
07:45 71.0 °F /  21.7 °C 67.3 °F /  19.6 °C 29.87 in /  1011.4 hPa SSW 5.5 mph /  8.9 km/h 12.7 mph /  20.4 km/h 88 % 0.00 in /  0 mm
07:50 71.0 °F /  21.7 °C 67.3 °F /  19.6 °C 29.87 in /  1011.4 hPa SE 7.4 mph /  11.9 km/h 12.7 mph /  20.4 km/h 88 % 0.00 in /  0 mm
07:55 70.9 °F /  21.6 °C 67.5 °F /  19.7 °C 29.88 in /  1011.7 hPa South 12.1 mph /  19.5 km/h 17.3 mph /  27.8 km/h 89 % 0.00 in /  0 mm
08:00 70.7 °F /  21.5 °C 67.6 °F /  19.8 °C 29.88 in /  1011.7 hPa SSE 6.0 mph /  9.7 km/h 18.0 mph /  29 km/h 90 % 0.00 in /  0 mm
08:05 70.4 °F /  21.3 °C 67.6 °F /  19.8 °C 29.88 in /  1011.7 hPa SSE 6.9 mph /  11.1 km/h 10.4 mph /  16.7 km/h 91 % 0.00 in /  0 mm
08:10 70.1 °F /  21.2 °C 67.3 °F /  19.6 °C 29.88 in /  1011.7 hPa SSE 9.0 mph /  14.5 km/h 13.0 mph /  20.9 km/h 91 % 0.01 in /  0.25 mm
08:15 69.9 °F /  21.1 °C 67.5 °F /  19.7 °C 29.88 in /  1011.7 hPa SSE 5.4 mph /  8.7 km/h 5.8 mph /  9.3 km/h 92 % 0.01 in /  0.25 mm
08:21 69.8 °F /  21 °C 67.4 °F /  19.7 °C 29.88 in /  1011.7 hPa SSE 5.0 mph /  8 km/h 15.0 mph /  24.1 km/h 92 % 0.00 in /  0 mm
08:26 69.8 °F /  21 °C 67.4 °F /  19.7 °C 29.88 in /  1011.7 hPa SSE 6.0 mph /  9.7 km/h 13.0 mph /  20.9 km/h 92 % 0.00 in /  0 mm
08:31 69.8 °F /  21 °C 67.7 °F /  19.8 °C 29.88 in /  1011.7 hPa SSE 7.0 mph /  11.3 km/h 16.0 mph /  25.7 km/h 93 % 0.00 in /  0 mm
08:36 69.9 °F /  21.1 °C 67.8 °F /  19.9 °C 29.89 in /  1012.1 hPa SSE 6.0 mph /  9.7 km/h 14.0 mph /  22.5 km/h 93 % 0.00 in /  0 mm
08:41 70.0 °F /  21.1 °C 67.9 °F /  19.9 °C 29.89 in /  1012.1 hPa SSE 6.0 mph /  9.7 km/h 22.0 mph /  35.4 km/h 93 % 0.00 in /  0 mm
08:46 70.1 °F /  21.2 °C 68.0 °F /  20 °C 29.88 in /  1011.7 hPa South 6.0 mph /  9.7 km/h 15.0 mph /  24.1 km/h 93 % 0.00 in /  0 mm
08:51 70.3 °F /  21.3 °C 67.9 °F /  19.9 °C 29.88 in /  1011.7 hPa SSE 9.0 mph /  14.5 km/h 22.0 mph /  35.4 km/h 92 % 0.00 in /  0 mm
08:56 70.4 °F /  21.3 °C 68.0 °F /  20 °C 29.87 in /  1011.4 hPa SSE 9.0 mph /  14.5 km/h 23.0 mph /  37 km/h 92 % 0.00 in /  0 mm
09:01 70.5 °F /  21.4 °C 67.7 °F /  19.8 °C 29.88 in /  1011.7 hPa South 5.0 mph /  8 km/h 15.0 mph /  24.1 km/h 91 % 0.01 in /  0.25 mm
09:06 70.7 °F /  21.5 °C 67.9 °F /  19.9 °C 29.87 in /  1011.4 hPa South 5.9 mph /  9.5 km/h 19.6 mph /  31.5 km/h 91 % 0.01 in /  0.25 mm
09:11 70.7 °F /  21.5 °C 67.6 °F /  19.8 °C 29.88 in /  1011.7 hPa SE 4.7 mph /  7.6 km/h 10.4 mph /  16.7 km/h 90 % 0.00 in /  0 mm
09:16 70.7 °F /  21.5 °C 67.6 °F /  19.8 °C 29.88 in /  1011.7 hPa SE 2.8 mph /  4.5 km/h 5.0 mph /  8 km/h 90 % 0.00 in /  0 mm
09:21 70.7 °F /  21.5 °C 67.6 °F /  19.8 °C 29.88 in /  1011.7 hPa SSW 5.5 mph /  8.9 km/h 13.8 mph /  22.2 km/h 90 % 0.00 in /  0 mm
09:26 70.8 °F /  21.6 °C 67.7 °F /  19.8 °C 29.87 in /  1011.4 hPa SSE 4.9 mph /  7.9 km/h 11.0 mph /  17.7 km/h 90 % 0.00 in /  0 mm
09:31 70.8 °F /  21.6 °C 67.7 °F /  19.8 °C 29.87 in /  1011.4 hPa SSW 4.4 mph /  7.1 km/h 11.5 mph /  18.5 km/h 90 % 0.00 in /  0 mm
09:36 71.0 °F /  21.7 °C 67.6 °F /  19.8 °C 29.87 in /  1011.4 hPa SE 5.4 mph /  8.7 km/h 11.5 mph /  18.5 km/h 89 % 0.00 in /  0 mm
09:41 71.3 °F /  21.8 °C 67.9 °F /  19.9 °C 29.87 in /  1011.4 hPa ESE 3.9 mph /  6.3 km/h 9.0 mph /  14.5 km/h 89 % 0.00 in /  0 mm
09:46 71.5 °F /  21.9 °C 68.1 °F /  20.1 °C 29.87 in /  1011.4 hPa SE 4.2 mph /  6.8 km/h 9.0 mph /  14.5 km/h 89 % 0.00 in /  0 mm
09:51 71.8 °F /  22.1 °C 68.4 °F /  20.2 °C 29.87 in /  1011.4 hPa SSW 4.9 mph /  7.9 km/h 10.4 mph /  16.7 km/h 89 % 0.00 in /  0 mm
09:56 72.1 °F /  22.3 °C 68.3 °F /  20.2 °C 29.86 in /  1011.1 hPa SE 4.2 mph /  6.8 km/h 9.2 mph /  14.8 km/h 88 % 0.00 in /  0 mm
10:01 72.5 °F /  22.5 °C 68.4 °F /  20.2 °C 29.87 in /  1011.4 hPa SSE 6.8 mph /  10.9 km/h 16.1 mph /  25.9 km/h 87 % 0.00 in /  0 mm
10:06 72.6 °F /  22.6 °C 68.2 °F /  20.1 °C 29.87 in /  1011.4 hPa SSE 7.0 mph /  11.3 km/h 15.0 mph /  24.1 km/h 86 % 0.00 in /  0 mm
10:11 72.7 °F /  22.6 °C 67.9 °F /  19.9 °C 29.87 in /  1011.4 hPa SSE 6.9 mph /  11.1 km/h 19.6 mph /  31.5 km/h 85 % 0.00 in /  0 mm
10:16 72.9 °F /  22.7 °C 68.1 °F /  20.1 °C 29.87 in /  1011.4 hPa South 3.0 mph /  4.8 km/h 11.5 mph /  18.5 km/h 85 % 0.00 in /  0 mm
10:21 72.9 °F /  22.7 °C 68.1 °F /  20.1 °C 29.87 in /  1011.4 hPa SSW 4.9 mph /  7.9 km/h 15.0 mph /  24.1 km/h 85 % 0.00 in /  0 mm
10:26 72.9 °F /  22.7 °C 68.1 °F /  20.1 °C 29.87 in /  1011.4 hPa SE 4.4 mph /  7.1 km/h 17.3 mph /  27.8 km/h 85 % 0.00 in /  0 mm
10:32 72.9 °F /  22.7 °C 68.1 °F /  20.1 °C 29.87 in /  1011.4 hPa South 4.0 mph /  6.4 km/h 9.2 mph /  14.8 km/h 85 % 0.00 in /  0 mm
10:37 72.9 °F /  22.7 °C 68.1 °F /  20.1 °C 29.87 in /  1011.4 hPa SW 6.8 mph /  10.9 km/h 19.6 mph /  31.5 km/h 85 % 0.00 in /  0 mm
10:42 72.8 °F /  22.7 °C 68.0 °F /  20 °C 29.86 in /  1011.1 hPa South 12.7 mph /  20.4 km/h 20.7 mph /  33.3 km/h 85 % 0.00 in /  0 mm
10:47 72.6 °F /  22.6 °C 67.8 °F /  19.9 °C 29.86 in /  1011.1 hPa SE 3.6 mph /  5.8 km/h 11.5 mph /  18.5 km/h 85 % 0.00 in /  0 mm
10:52 72.5 °F /  22.5 °C 67.7 °F /  19.8 °C 29.86 in /  1011.1 hPa SSE 9.4 mph /  15.1 km/h 20.7 mph /  33.3 km/h 85 % 0.00 in /  0 mm
10:57 72.4 °F /  22.4 °C 67.6 °F /  19.8 °C 29.86 in /  1011.1 hPa SE 9.4 mph /  15.1 km/h 16.1 mph /  25.9 km/h 85 % 0.00 in /  0 mm
11:02 72.4 °F /  22.4 °C 68.0 °F /  20 °C 29.86 in /  1011.1 hPa SE 5.3 mph /  8.5 km/h 16.1 mph /  25.9 km/h 86 % 0.00 in /  0 mm
11:07 72.4 °F /  22.4 °C 68.0 °F /  20 °C 29.86 in /  1011.1 hPa SSE 3.1 mph /  5 km/h 17.3 mph /  27.8 km/h 86 % 0.00 in /  0 mm
11:12 72.5 °F /  22.5 °C 67.7 °F /  19.8 °C 29.86 in /  1011.1 hPa SSW 6.0 mph /  9.7 km/h 23.0 mph /  37 km/h 85 % 0.00 in /  0 mm
11:17 72.6 °F /  22.6 °C 67.8 °F /  19.9 °C 29.86 in /  1011.1 hPa SE 7.8 mph /  12.6 km/h 15.0 mph /  24.1 km/h 85 % 0.00 in /  0 mm
11:22 72.8 °F /  22.7 °C 68.0 °F /  20 °C 29.86 in /  1011.1 hPa South 6.7 mph /  10.8 km/h 21.9 mph /  35.2 km/h 85 % 0.00 in /  0 mm
11:27 72.9 °F /  22.7 °C 68.1 °F /  20.1 °C 29.86 in /  1011.1 hPa ESE 14.1 mph /  22.7 km/h 26.5 mph /  42.6 km/h 85 % 0.00 in /  0 mm
11:32 73.0 °F /  22.8 °C 68.2 °F /  20.1 °C 29.85 in /  1010.7 hPa South 5.2 mph /  8.4 km/h 11.5 mph /  18.5 km/h 85 % 0.00 in /  0 mm
11:37 73.1 °F /  22.8 °C 68.3 °F /  20.2 °C 29.86 in /  1011.1 hPa SE 4.6 mph /  7.4 km/h 11.0 mph /  17.7 km/h 85 % 0.00 in /  0 mm
11:42 73.3 °F /  22.9 °C 68.5 °F /  20.3 °C 29.85 in /  1010.7 hPa SE 3.7 mph /  6 km/h 11.5 mph /  18.5 km/h 85 % 0.00 in /  0 mm
11:47 73.4 °F /  23 °C 68.6 °F /  20.3 °C 29.85 in /  1010.7 hPa SSE 3.4 mph /  5.5 km/h 9.0 mph /  14.5 km/h 85 % 0.00 in /  0 mm
11:52 73.5 °F /  23.1 °C 68.4 °F /  20.2 °C 29.84 in /  1010.4 hPa South 3.7 mph /  6 km/h 6.9 mph /  11.1 km/h 84 % 0.00 in /  0 mm
11:57 73.9 °F /  23.3 °C 68.8 °F /  20.4 °C 29.85 in /  1010.7 hPa SE 8.5 mph /  13.7 km/h 31.1 mph /  50 km/h 84 % 0.00 in /  0 mm
12:02 74.5 °F /  23.6 °C 69.0 °F /  20.6 °C 29.84 in /  1010.4 hPa South 4.8 mph /  7.7 km/h 19.6 mph /  31.5 km/h 83 % 0.00 in /  0 mm
12:07 75.0 °F /  23.9 °C 69.5 °F /  20.8 °C 29.86 in /  1011.1 hPa South 6.1 mph /  9.8 km/h 8.0 mph /  12.9 km/h 83 % 0.00 in /  0 mm
12:12 75.3 °F /  24.1 °C 69.1 °F /  20.6 °C 29.86 in /  1011.1 hPa SE 5.0 mph /  8 km/h 19.6 mph /  31.5 km/h 81 % 0.00 in /  0 mm
12:17 75.6 °F /  24.2 °C 69.0 °F /  20.6 °C 29.85 in /  1010.7 hPa SE 3.2 mph /  5.1 km/h 10.4 mph /  16.7 km/h 80 % 0.00 in /  0 mm
12:22 75.4 °F /  24.1 °C 68.8 °F /  20.4 °C 29.85 in /  1010.7 hPa South 10.0 mph /  16.1 km/h 23.0 mph /  37 km/h 80 % 0.00 in /  0 mm
12:27 75.2 °F /  24 °C 69.0 °F /  20.6 °C 29.85 in /  1010.7 hPa SSE 3.3 mph /  5.3 km/h 12.7 mph /  20.4 km/h 81 % 0.00 in /  0 mm
12:37 75.1 °F /  23.9 °C 68.9 °F /  20.5 °C 29.83 in /  1010 hPa South 6.4 mph /  10.3 km/h 18.4 mph /  29.6 km/h 81 % 0.00 in /  0 mm
12:43 75.2 °F /  24 °C 69.0 °F /  20.6 °C 29.83 in /  1010 hPa SSW 5.9 mph /  9.5 km/h 17.3 mph /  27.8 km/h 81 % 0.00 in /  0 mm
12:48 75.2 °F /  24 °C 69.0 °F /  20.6 °C 29.83 in /  1010 hPa SSE 4.0 mph /  6.4 km/h 11.5 mph /  18.5 km/h 81 % 0.00 in /  0 mm
12:53 75.1 °F /  23.9 °C 68.9 °F /  20.5 °C 29.83 in /  1010 hPa SSE 3.5 mph /  5.6 km/h 12.7 mph /  20.4 km/h 81 % 0.00 in /  0 mm
12:58 75.1 °F /  23.9 °C 68.9 °F /  20.5 °C 29.83 in /  1010 hPa South 6.2 mph /  10 km/h 19.6 mph /  31.5 km/h 81 % 0.00 in /  0 mm
13:03 75.0 °F /  23.9 °C 68.8 °F /  20.4 °C 29.83 in /  1010 hPa SSW 6.9 mph /  11.1 km/h 16.1 mph /  25.9 km/h 81 % 0.00 in /  0 mm
13:08 74.9 °F /  23.8 °C 69.0 °F /  20.6 °C 29.83 in /  1010 hPa SSW 7.4 mph /  11.9 km/h 12.7 mph /  20.4 km/h 82 % 0.00 in /  0 mm
13:13 74.8 °F /  23.8 °C 68.6 °F /  20.3 °C 29.83 in /  1010 hPa SE 6.5 mph /  10.5 km/h 12.0 mph /  19.3 km/h 81 % 0.00 in /  0 mm
13:18 74.7 °F /  23.7 °C 68.8 °F /  20.4 °C 29.82 in /  1009.7 hPa SE 3.7 mph /  6 km/h 12.7 mph /  20.4 km/h 82 % 0.00 in /  0 mm
13:23 74.6 °F /  23.7 °C 68.7 °F /  20.4 °C 29.83 in /  1010 hPa SE 5.5 mph /  8.9 km/h 10.4 mph /  16.7 km/h 82 % 0.00 in /  0 mm
13:28 74.7 °F /  23.7 °C 68.8 °F /  20.4 °C 29.82 in /  1009.7 hPa SE 6.0 mph /  9.7 km/h 11.5 mph /  18.5 km/h 82 % 0.00 in /  0 mm
13:33 74.8 °F /  23.8 °C 68.9 °F /  20.5 °C 29.82 in /  1009.7 hPa SE 5.8 mph /  9.3 km/h 15.0 mph /  24.1 km/h 82 % 0.00 in /  0 mm
13:38 74.9 °F /  23.8 °C 69.0 °F /  20.6 °C 29.82 in /  1009.7 hPa SSW 7.4 mph /  11.9 km/h 17.3 mph /  27.8 km/h 82 % 0.00 in /  0 mm
13:43 74.9 °F /  23.8 °C 69.0 °F /  20.6 °C 29.82 in /  1009.7 hPa SE 4.4 mph /  7.1 km/h 8.0 mph /  12.9 km/h 82 % 0.00 in /  0 mm
13:48 74.8 °F /  23.8 °C 68.9 °F /  20.5 °C 29.82 in /  1009.7 hPa South 8.1 mph /  13 km/h 17.3 mph /  27.8 km/h 82 % 0.00 in /  0 mm
13:53 74.6 °F /  23.7 °C 69.1 °F /  20.6 °C 29.82 in /  1009.7 hPa SE 9.3 mph /  15 km/h 21.9 mph /  35.2 km/h 83 % 0.00 in /  0 mm
13:58 74.3 °F /  23.5 °C 68.8 °F /  20.4 °C 29.82 in /  1009.7 hPa SE 6.3 mph /  10.1 km/h 11.5 mph /  18.5 km/h 83 % 0.00 in /  0 mm
14:03 74.0 °F /  23.3 °C 68.9 °F /  20.5 °C 29.81 in /  1009.4 hPa SSW 5.0 mph /  8 km/h 8.1 mph /  13 km/h 84 % 0.00 in /  0 mm
14:09 73.7 °F /  23.2 °C 68.6 °F /  20.3 °C 29.81 in /  1009.4 hPa SSE 12.2 mph /  19.6 km/h 26.0 mph /  41.8 km/h 84 % 0.00 in /  0 mm
14:14 73.4 °F /  23 °C 68.6 °F /  20.3 °C 29.81 in /  1009.4 hPa SSE 7.9 mph /  12.7 km/h 19.6 mph /  31.5 km/h 85 % 0.00 in /  0 mm
14:19 72.9 °F /  22.7 °C 68.8 °F /  20.4 °C 29.82 in /  1009.7 hPa WSW 6.8 mph /  10.9 km/h 13.8 mph /  22.2 km/h 87 % 0.01 in /  0.25 mm
14:24 72.0 °F /  22.2 °C 68.6 °F /  20.3 °C 29.81 in /  1009.4 hPa South 5.8 mph /  9.3 km/h 17.3 mph /  27.8 km/h 89 % 0.02 in /  0.51 mm
14:29 71.3 °F /  21.8 °C 68.5 °F /  20.3 °C 29.82 in /  1009.7 hPa SSW 4.6 mph /  7.4 km/h 9.2 mph /  14.8 km/h 91 % 0.04 in /  1.02 mm
14:34 71.1 °F /  21.7 °C 68.7 °F /  20.4 °C 29.81 in /  1009.4 hPa SSE 5.2 mph /  8.4 km/h 11.5 mph /  18.5 km/h 92 % 0.06 in /  1.52 mm
14:39 70.8 °F /  21.6 °C 68.4 °F /  20.2 °C 29.82 in /  1009.7 hPa SSW 5.2 mph /  8.4 km/h 13.8 mph /  22.2 km/h 92 % 0.09 in /  2.29 mm
14:44 70.6 °F /  21.4 °C 68.5 °F /  20.3 °C 29.81 in /  1009.4 hPa South 7.3 mph /  11.7 km/h 9.2 mph /  14.8 km/h 93 % 0.11 in /  2.79 mm
14:49 70.5 °F /  21.4 °C 68.4 °F /  20.2 °C 29.81 in /  1009.4 hPa South 7.3 mph /  11.7 km/h 17.3 mph /  27.8 km/h 93 % 0.13 in /  3.3 mm
14:54 70.3 °F /  21.3 °C 68.5 °F /  20.3 °C 29.81 in /  1009.4 hPa SSW 2.9 mph /  4.7 km/h 12.7 mph /  20.4 km/h 94 % 0.16 in /  4.06 mm
14:59 70.2 °F /  21.2 °C 68.4 °F /  20.2 °C 29.81 in /  1009.4 hPa South 4.6 mph /  7.4 km/h 8.1 mph /  13 km/h 94 % 0.18 in /  4.57 mm
15:04 70.1 °F /  21.2 °C 68.3 °F /  20.2 °C 29.81 in /  1009.4 hPa SSW 2.8 mph /  4.5 km/h 4.6 mph /  7.4 km/h 94 % 0.20 in /  5.08 mm
15:09 70.0 °F /  21.1 °C 68.2 °F /  20.1 °C 29.81 in /  1009.4 hPa SE 5.2 mph /  8.4 km/h 10.4 mph /  16.7 km/h 94 % 0.22 in /  5.59 mm
15:14 69.9 °F /  21.1 °C 68.1 °F /  20.1 °C 29.81 in /  1009.4 hPa SSE 4.3 mph /  6.9 km/h 7.0 mph /  11.3 km/h 94 % 0.23 in /  5.84 mm
15:19 69.9 °F /  21.1 °C 68.1 °F /  20.1 °C 29.81 in /  1009.4 hPa South 8.4 mph /  13.5 km/h 9.2 mph /  14.8 km/h 94 % 0.23 in /  5.84 mm
15:24 69.8 °F /  21 °C 68.3 °F /  20.2 °C 29.82 in /  1009.7 hPa SE 3.5 mph /  5.6 km/h 12.7 mph /  20.4 km/h 95 % 0.23 in /  5.84 mm
15:29 69.7 °F /  20.9 °C 68.2 °F /  20.1 °C 29.82 in /  1009.7 hPa SSW 2.6 mph /  4.2 km/h 9.2 mph /  14.8 km/h 95 % 0.21 in /  5.33 mm
15:35 69.6 °F /  20.9 °C 68.1 °F /  20.1 °C 29.81 in /  1009.4 hPa SSW 4.3 mph /  6.9 km/h 11.5 mph /  18.5 km/h 95 % 0.20 in /  5.08 mm
15:40 69.4 °F /  20.8 °C 67.9 °F /  19.9 °C 29.80 in /  1009 hPa SSW 2.8 mph /  4.5 km/h 10.4 mph /  16.7 km/h 95 % 0.17 in /  4.32 mm
15:45 69.3 °F /  20.7 °C 67.8 °F /  19.9 °C 29.81 in /  1009.4 hPa SSE 6.7 mph /  10.8 km/h 11.5 mph /  18.5 km/h 95 % 0.14 in /  3.56 mm
15:50 69.2 °F /  20.7 °C 67.7 °F /  19.8 °C 29.80 in /  1009 hPa SSW 6.4 mph /  10.3 km/h 16.1 mph /  25.9 km/h 95 % 0.12 in /  3.05 mm
15:51 69.1 °F /  20.6 °C 67.6 °F /  19.8 °C 29.81 in /  1009.4 hPa SE 4.1 mph /  6.6 km/h 9.2 mph /  14.8 km/h 95 % 0.12 in /  3.05 mm
15:56 69.1 °F /  20.6 °C 67.6 °F /  19.8 °C 29.82 in /  1009.7 hPa SSE 1.7 mph /  2.7 km/h 11.5 mph /  18.5 km/h 95 % 0.10 in /  2.54 mm
16:01 68.9 °F /  20.5 °C 67.4 °F /  19.7 °C 29.82 in /  1009.7 hPa South 2.5 mph /  4 km/h 6.9 mph /  11.1 km/h 95 % 0.07 in /  1.78 mm
16:06 68.9 °F /  20.5 °C 67.4 °F /  19.7 °C 29.83 in /  1010 hPa SSW 4.3 mph /  6.9 km/h 11.5 mph /  18.5 km/h 95 % 0.05 in /  1.27 mm
16:12 68.7 °F /  20.4 °C 67.2 °F /  19.6 °C 29.82 in /  1009.7 hPa South 5.2 mph /  8.4 km/h 11.5 mph /  18.5 km/h 95 % 0.03 in /  0.76 mm
16:17 68.6 °F /  20.3 °C 67.1 °F /  19.5 °C 29.82 in /  1009.7 hPa SSW 3.4 mph /  5.5 km/h 11.5 mph /  18.5 km/h 95 % 0.02 in /  0.51 mm
16:22 68.6 °F /  20.3 °C 67.1 °F /  19.5 °C 29.81 in /  1009.4 hPa South 5.0 mph /  8 km/h 19.6 mph /  31.5 km/h 95 % 0.01 in /  0.25 mm
16:27 68.5 °F /  20.3 °C 67.3 °F /  19.6 °C 29.81 in /  1009.4 hPa SE 5.0 mph /  8 km/h 11.5 mph /  18.5 km/h 96 % 0.01 in /  0.25 mm
16:32 68.4 °F /  20.2 °C 67.2 °F /  19.6 °C 29.81 in /  1009.4 hPa ESE 6.2 mph /  10 km/h 11.5 mph /  18.5 km/h 96 % 0.00 in /  0 mm
16:37 68.4 °F /  20.2 °C 67.2 °F /  19.6 °C 29.81 in /  1009.4 hPa SE 3.0 mph /  4.8 km/h 6.0 mph /  9.7 km/h 96 % 0.00 in /  0 mm
16:42 68.4 °F /  20.2 °C 67.2 °F /  19.6 °C 29.81 in /  1009.4 hPa SE 4.2 mph /  6.8 km/h 12.0 mph /  19.3 km/h 96 % 0.00 in /  0 mm
16:47 68.3 °F /  20.2 °C 67.1 °F /  19.5 °C 29.80 in /  1009 hPa South 5.2 mph /  8.4 km/h 13.8 mph /  22.2 km/h 96 % 0.00 in /  0 mm
16:52 68.3 °F /  20.2 °C 67.1 °F /  19.5 °C 29.81 in /  1009.4 hPa South 4.2 mph /  6.8 km/h 10.4 mph /  16.7 km/h 96 % 0.00 in /  0 mm
16:57 68.4 °F /  20.2 °C 67.2 °F /  19.6 °C 29.80 in /  1009 hPa SSW 2.0 mph /  3.2 km/h 16.1 mph /  25.9 km/h 96 % 0.00 in /  0 mm
17:02 68.5 °F /  20.3 °C 67.3 °F /  19.6 °C 29.80 in /  1009 hPa SE 2.2 mph /  3.5 km/h 4.6 mph /  7.4 km/h 96 % 0.00 in /  0 mm
17:07 68.6 °F /  20.3 °C 67.4 °F /  19.7 °C 29.80 in /  1009 hPa SE 2.9 mph /  4.7 km/h 6.9 mph /  11.1 km/h 96 % 0.00 in /  0 mm
17:12 68.6 °F /  20.3 °C 67.4 °F /  19.7 °C 29.80 in /  1009 hPa SSW 4.5 mph /  7.2 km/h 10.4 mph /  16.7 km/h 96 % 0.00 in /  0 mm
17:17 68.6 °F /  20.3 °C 67.4 °F /  19.7 °C 29.80 in /  1009 hPa SSE 2.8 mph /  4.5 km/h 6.9 mph /  11.1 km/h 96 % 0.00 in /  0 mm
17:22 68.6 °F /  20.3 °C 67.4 °F /  19.7 °C 29.80 in /  1009 hPa South 2.3 mph /  3.7 km/h 9.2 mph /  14.8 km/h 96 % 0.00 in /  0 mm
17:28 68.6 °F /  20.3 °C 67.4 °F /  19.7 °C 29.80 in /  1009 hPa South 6.8 mph /  10.9 km/h 15.0 mph /  24.1 km/h 96 % 0.00 in /  0 mm
17:33 68.5 °F /  20.3 °C 67.3 °F /  19.6 °C 29.80 in /  1009 hPa SSE 7.2 mph /  11.6 km/h 16.0 mph /  25.7 km/h 96 % 0.00 in /  0 mm
17:38 68.5 °F /  20.3 °C 67.3 °F /  19.6 °C 29.80 in /  1009 hPa SE 6.5 mph /  10.5 km/h 11.5 mph /  18.5 km/h 96 % 0.00 in /  0 mm
17:43 68.5 °F /  20.3 °C 67.3 °F /  19.6 °C 29.80 in /  1009 hPa SSE 8.0 mph /  12.9 km/h 19.6 mph /  31.5 km/h 96 % 0.00 in /  0 mm
17:48 68.6 °F /  20.3 °C 67.4 °F /  19.7 °C 29.79 in /  1008.7 hPa South 7.8 mph /  12.6 km/h 13.8 mph /  22.2 km/h 96 % 0.00 in /  0 mm
17:53 68.6 °F /  20.3 °C 67.4 °F /  19.7 °C 29.80 in /  1009 hPa SSE 0.8 mph /  1.3 km/h 3.5 mph /  5.6 km/h 96 % 0.00 in /  0 mm
17:58 68.7 °F /  20.4 °C 67.5 °F /  19.7 °C 29.80 in /  1009 hPa SSE 4.8 mph /  7.7 km/h 9.0 mph /  14.5 km/h 96 % 0.00 in /  0 mm
18:03 68.7 °F /  20.4 °C 67.5 °F /  19.7 °C 29.79 in /  1008.7 hPa SE 5.6 mph /  9 km/h 11.5 mph /  18.5 km/h 96 % 0.00 in /  0 mm
18:08 68.7 °F /  20.4 °C 67.5 °F /  19.7 °C 29.80 in /  1009 hPa South 4.1 mph /  6.6 km/h 12.0 mph /  19.3 km/h 96 % 0.00 in /  0 mm
18:13 68.7 °F /  20.4 °C 67.5 °F /  19.7 °C 29.80 in /  1009 hPa South 1.2 mph /  1.9 km/h 6.9 mph /  11.1 km/h 96 % 0.00 in /  0 mm
18:18 68.7 °F /  20.4 °C 67.5 °F /  19.7 °C 29.80 in /  1009 hPa SSW 1.7 mph /  2.7 km/h 3.5 mph /  5.6 km/h 96 % 0.00 in /  0 mm
18:23 68.7 °F /  20.4 °C 67.5 °F /  19.7 °C 29.80 in /  1009 hPa South 3.3 mph /  5.3 km/h 4.6 mph /  7.4 km/h 96 % 0.00 in /  0 mm
18:28 68.7 °F /  20.4 °C 67.5 °F /  19.7 °C 29.80 in /  1009 hPa SE 6.1 mph /  9.8 km/h 17.3 mph /  27.8 km/h 96 % 0.00 in /  0 mm
18:33 68.7 °F /  20.4 °C 67.5 °F /  19.7 °C 29.81 in /  1009.4 hPa SSW 3.6 mph /  5.8 km/h 6.9 mph /  11.1 km/h 96 % 0.00 in /  0 mm
18:38 68.7 °F /  20.4 °C 67.5 °F /  19.7 °C 29.81 in /  1009.4 hPa SE 5.5 mph /  8.9 km/h 6.9 mph /  11.1 km/h 96 % 0.00 in /  0 mm
18:43 68.7 °F /  20.4 °C 67.5 °F /  19.7 °C 29.81 in /  1009.4 hPa SSW 1.1 mph /  1.8 km/h 4.6 mph /  7.4 km/h 96 % 0.00 in /  0 mm
18:49 68.7 °F /  20.4 °C 67.5 °F /  19.7 °C 29.81 in /  1009.4 hPa SSE 6.4 mph /  10.3 km/h 12.0 mph /  19.3 km/h 96 % 0.00 in /  0 mm
18:54 68.7 °F /  20.4 °C 67.5 °F /  19.7 °C 29.81 in /  1009.4 hPa SE 4.7 mph /  7.6 km/h 11.5 mph /  18.5 km/h 96 % 0.00 in /  0 mm
18:59 68.7 °F /  20.4 °C 67.5 °F /  19.7 °C 29.81 in /  1009.4 hPa SSW 2.9 mph /  4.7 km/h 11.5 mph /  18.5 km/h 96 % 0.00 in /  0 mm
19:04 68.7 °F /  20.4 °C 67.5 °F /  19.7 °C 29.81 in /  1009.4 hPa SSW 7.6 mph /  12.2 km/h 13.8 mph /  22.2 km/h 96 % 0.00 in /  0 mm
19:09 68.6 °F /  20.3 °C 67.4 °F /  19.7 °C 29.80 in /  1009 hPa SE 5.6 mph /  9 km/h 8.1 mph /  13 km/h 96 % 0.00 in /  0 mm
19:14 68.6 °F /  20.3 °C 67.4 °F /  19.7 °C 29.81 in /  1009.4 hPa SSW 4.5 mph /  7.2 km/h 9.2 mph /  14.8 km/h 96 % 0.00 in /  0 mm
19:19 68.5 °F /  20.3 °C 67.3 °F /  19.6 °C 29.80 in /  1009 hPa WSW 3.0 mph /  4.8 km/h 8.1 mph /  13 km/h 96 % 0.00 in /  0 mm
19:24 68.5 °F /  20.3 °C 67.3 °F /  19.6 °C 29.80 in /  1009 hPa SW 2.3 mph /  3.7 km/h 5.0 mph /  8 km/h 96 % 0.00 in /  0 mm
19:29 68.5 °F /  20.3 °C 67.3 °F /  19.6 °C 29.81 in /  1009.4 hPa SW 1.2 mph /  1.9 km/h 3.5 mph /  5.6 km/h 96 % 0.00 in /  0 mm
19:34 68.5 °F /  20.3 °C 67.3 °F /  19.6 °C 29.81 in /  1009.4 hPa SSW 2.9 mph /  4.7 km/h 6.0 mph /  9.7 km/h 96 % 0.00 in /  0 mm
19:39 68.5 °F /  20.3 °C 67.3 °F /  19.6 °C 29.80 in /  1009 hPa South 3.1 mph /  5 km/h 11.5 mph /  18.5 km/h 96 % 0.00 in /  0 mm
19:44 68.4 °F /  20.2 °C 67.2 °F /  19.6 °C 29.80 in /  1009 hPa SSW 3.5 mph /  5.6 km/h 5.8 mph /  9.3 km/h 96 % 0.00 in /  0 mm
19:49 68.4 °F /  20.2 °C 67.2 °F /  19.6 °C 29.80 in /  1009 hPa SW 0.9 mph /  1.4 km/h 3.5 mph /  5.6 km/h 96 % 0.00 in /  0 mm
19:54 68.3 °F /  20.2 °C 67.1 °F /  19.5 °C 29.80 in /  1009 hPa SSW 3.3 mph /  5.3 km/h 6.0 mph /  9.7 km/h 96 % 0.00 in /  0 mm
19:59 68.2 °F /  20.1 °C 67.0 °F /  19.4 °C 29.80 in /  1009 hPa SW 0.2 mph /  0.3 km/h 1.2 mph /  1.9 km/h 96 % 0.00 in /  0 mm
20:04 68.2 °F /  20.1 °C 67.0 °F /  19.4 °C 29.80 in /  1009 hPa SSE 0.4 mph /  0.6 km/h 3.5 mph /  5.6 km/h 96 % 0.01 in /  0.25 mm
20:09 68.1 °F /  20.1 °C 66.9 °F /  19.4 °C 29.82 in /  1009.7 hPa SW 4.5 mph /  7.2 km/h 5.8 mph /  9.3 km/h 96 % 0.01 in /  0.25 mm
20:15 68.0 °F /  20 °C 66.8 °F /  19.3 °C 29.79 in /  1008.7 hPa WSW 2.2 mph /  3.5 km/h 5.8 mph /  9.3 km/h 96 % 0.03 in /  0.76 mm
20:20 67.8 °F /  19.9 °C 66.6 °F /  19.2 °C 29.78 in /  1008.4 hPa SW 0.8 mph /  1.3 km/h 4.6 mph /  7.4 km/h 96 % 0.07 in /  1.78 mm
20:25 67.7 °F /  19.8 °C 66.5 °F /  19.2 °C 29.78 in /  1008.4 hPa SSW 2.0 mph /  3.2 km/h 4.6 mph /  7.4 km/h 96 % 0.13 in /  3.3 mm
20:30 67.6 °F /  19.8 °C 66.4 °F /  19.1 °C 29.78 in /  1008.4 hPa SSE 2.2 mph /  3.5 km/h 3.5 mph /  5.6 km/h 96 % 0.18 in /  4.57 mm
20:31 67.6 °F /  19.8 °C 66.4 °F /  19.1 °C 29.78 in /  1008.4 hPa South 2.0 mph /  3.2 km/h 7.0 mph /  11.3 km/h 96 % 0.02 in /  0.51 mm
20:36 67.6 °F /  19.8 °C 66.4 °F /  19.1 °C 29.78 in /  1008.4 hPa South 2.0 mph /  3.2 km/h 12.0 mph /  19.3 km/h 96 % 0.02 in /  0.51 mm
20:41 67.5 °F /  19.7 °C 66.3 °F /  19.1 °C 29.79 in /  1008.7 hPa South 3.0 mph /  4.8 km/h 12.0 mph /  19.3 km/h 96 % 0.02 in /  0.51 mm
20:46 67.5 °F /  19.7 °C 66.6 °F /  19.2 °C 29.78 in /  1008.4 hPa SSW 4.9 mph /  7.9 km/h 11.5 mph /  18.5 km/h 97 % 0.43 in /  10.92 mm
20:51 67.5 °F /  19.7 °C 66.6 °F /  19.2 °C 29.79 in /  1008.7 hPa SW 1.0 mph /  1.6 km/h 6.0 mph /  9.7 km/h 97 % 0.02 in /  0.51 mm
20:56 67.5 °F /  19.7 °C 66.6 °F /  19.2 °C 29.80 in /  1009 hPa SW 5.0 mph /  8 km/h 9.0 mph /  14.5 km/h 97 % 0.01 in /  0.25 mm
21:01 67.5 °F /  19.7 °C 66.6 °F /  19.2 °C 29.79 in /  1008.7 hPa South 4.7 mph /  7.6 km/h 13.8 mph /  22.2 km/h 97 % 0.65 in /  16.51 mm
21:06 67.5 °F /  19.7 °C 66.6 °F /  19.2 °C 29.80 in /  1009 hPa SW 6.0 mph /  9.7 km/h 14.0 mph /  22.5 km/h 97 % 0.01 in /  0.25 mm
21:11 67.3 °F /  19.6 °C 66.4 °F /  19.1 °C 29.81 in /  1009.4 hPa SW 3.0 mph /  4.8 km/h 10.0 mph /  16.1 km/h 97 % 0.01 in /  0.25 mm
21:16 67.1 °F /  19.5 °C 66.2 °F /  19 °C 29.80 in /  1009 hPa SW 3.0 mph /  4.8 km/h 10.0 mph /  16.1 km/h 97 % 0.01 in /  0.25 mm
21:21 66.9 °F /  19.4 °C 65.7 °F /  18.7 °C 29.80 in /  1009 hPa SW 2.0 mph /  3.2 km/h 9.0 mph /  14.5 km/h 96 % 0.02 in /  0.51 mm
21:26 66.8 °F /  19.3 °C 65.6 °F /  18.7 °C 29.81 in /  1009.4 hPa SSW 0.9 mph /  1.4 km/h 3.0 mph /  4.8 km/h 96 % 0.90 in /  22.86 mm
21:31 66.7 °F /  19.3 °C 65.5 °F /  18.6 °C 29.81 in /  1009.4 hPa Calm   4.0 mph /  6.4 km/h 96 % 0.01 in /  0.25 mm
21:36 66.7 °F /  19.3 °C 65.8 °F /  18.8 °C 29.80 in /  1009 hPa Calm   1.2 mph /  1.9 km/h 97 % 0.92 in /  23.37 mm
21:41 66.7 °F /  19.3 °C 65.8 °F /  18.8 °C 29.80 in /  1009 hPa Calm   4.0 mph /  6.4 km/h 97 % 0.01 in /  0.25 mm
21:46 66.7 °F /  19.3 °C 65.8 °F /  18.8 °C 29.80 in /  1009 hPa SW 1.0 mph /  1.6 km/h 2.0 mph /  3.2 km/h 97 % 0.87 in /  22.1 mm
21:51 66.7 °F /  19.3 °C 65.8 °F /  18.8 °C 29.80 in /  1009 hPa SW 2.0 mph /  3.2 km/h 4.0 mph /  6.4 km/h 97 % 0.02 in /  0.51 mm
21:56 66.7 °F /  19.3 °C 65.8 °F /  18.8 °C 29.80 in /  1009 hPa SW 2.0 mph /  3.2 km/h 6.0 mph /  9.7 km/h 97 % 0.02 in /  0.51 mm
22:01 66.8 °F /  19.3 °C 65.9 °F /  18.8 °C 29.78 in /  1008.4 hPa West 3.4 mph /  5.5 km/h 6.9 mph /  11.1 km/h 97 % 0.82 in /  20.83 mm
22:06 66.8 °F /  19.3 °C 65.9 °F /  18.8 °C 29.79 in /  1008.7 hPa WSW 2.0 mph /  3.2 km/h 7.0 mph /  11.3 km/h 97 % 0.01 in /  0.25 mm
22:11 66.9 °F /  19.4 °C 66.0 °F /  18.9 °C 29.79 in /  1008.7 hPa Calm   2.3 mph /  3.7 km/h 97 % 0.78 in /  19.81 mm
22:16 67.0 °F /  19.4 °C 66.1 °F /  18.9 °C 29.79 in /  1008.7 hPa SW 1.0 mph /  1.6 km/h 4.0 mph /  6.4 km/h 97 % 0.01 in /  0.25 mm
22:21 67.1 °F /  19.5 °C 66.2 °F /  19 °C 29.79 in /  1008.7 hPa SSW 2.0 mph /  3.2 km/h 5.0 mph /  8 km/h 97 % 0.01 in /  0.25 mm
22:26 67.2 °F /  19.6 °C 66.6 °F /  19.2 °C 29.78 in /  1008.4 hPa Calm   7.0 mph /  11.3 km/h 98 % 0.01 in /  0.25 mm
22:31 67.3 °F /  19.6 °C 66.7 °F /  19.3 °C 29.78 in /  1008.4 hPa South 2.0 mph /  3.2 km/h 4.0 mph /  6.4 km/h 98 % 0.01 in /  0.25 mm
22:36 67.4 °F /  19.7 °C 66.5 °F /  19.2 °C 29.77 in /  1008 hPa Calm   4.0 mph /  6.4 km/h 97 % 0.01 in /  0.25 mm
22:41 67.4 °F /  19.7 °C 66.5 °F /  19.2 °C 29.76 in /  1007.7 hPa SSW 2.0 mph /  3.2 km/h 4.0 mph /  6.4 km/h 97 % 0.00 in /  0 mm
22:46 67.3 °F /  19.6 °C 66.4 °F /  19.1 °C 29.76 in /  1007.7 hPa SW 1.0 mph /  1.6 km/h 4.0 mph /  6.4 km/h 97 % 0.00 in /  0 mm
22:51 67.4 °F /  19.7 °C 66.5 °F /  19.2 °C 29.77 in /  1008 hPa Calm   1.2 mph /  1.9 km/h 97 % 0.58 in /  14.73 mm
22:56 67.4 °F /  19.7 °C 66.8 °F /  19.3 °C 29.76 in /  1007.7 hPa Calm   3.0 mph /  4.8 km/h 98 % 0.01 in /  0.25 mm
23:01 67.4 °F /  19.7 °C 66.5 °F /  19.2 °C 29.76 in /  1007.7 hPa Calm   1.2 mph /  1.9 km/h 97 % 0.51 in /  12.95 mm
23:06 67.5 °F /  19.7 °C 66.6 °F /  19.2 °C 29.76 in /  1007.7 hPa SSW 2.0 mph /  3.2 km/h 4.6 mph /  7.4 km/h 97 % 0.46 in /  11.68 mm
23:11 67.6 °F /  19.8 °C 67.0 °F /  19.4 °C 29.76 in /  1007.7 hPa ESE 0.7 mph /  1.1 km/h 8.0 mph /  12.9 km/h 98 % 0.42 in /  10.67 mm
23:16 67.7 °F /  19.8 °C 67.1 °F /  19.5 °C 29.76 in /  1007.7 hPa SSE 2.8 mph /  4.5 km/h 8.1 mph /  13 km/h 98 % 0.39 in /  9.91 mm
23:21 67.9 °F /  19.9 °C 67.3 °F /  19.6 °C 29.76 in /  1007.7 hPa SW 0.3 mph /  0.5 km/h 2.3 mph /  3.7 km/h 98 % 0.34 in /  8.64 mm
23:26 67.9 °F /  19.9 °C 67.3 °F /  19.6 °C 29.76 in /  1007.7 hPa SW 1.9 mph /  3.1 km/h 5.8 mph /  9.3 km/h 98 % 0.29 in /  7.37 mm
23:31 68.0 °F /  20 °C 67.4 °F /  19.7 °C 29.76 in /  1007.7 hPa SSW 1.8 mph /  2.9 km/h 5.8 mph /  9.3 km/h 98 % 0.25 in /  6.35 mm
23:36 68.0 °F /  20 °C 67.4 °F /  19.7 °C 29.75 in /  1007.3 hPa West 0.5 mph /  0.8 km/h 2.3 mph /  3.7 km/h 98 % 0.20 in /  5.08 mm
23:41 68.0 °F /  20 °C 67.4 °F /  19.7 °C 29.75 in /  1007.3 hPa SW 2.6 mph /  4.2 km/h 4.6 mph /  7.4 km/h 98 % 0.17 in /  4.32 mm
23:46 68.1 °F /  20.1 °C 67.5 °F /  19.7 °C 29.76 in /  1007.7 hPa SSW 1.7 mph /  2.7 km/h 4.0 mph /  6.4 km/h 98 % 0.14 in /  3.56 mm
23:51 68.1 °F /  20.1 °C 67.5 °F /  19.7 °C 29.76 in /  1007.7 hPa SE 1.4 mph /  2.3 km/h 3.0 mph /  4.8 km/h 98 % 0.12 in /  3.05 mm
23:56 68.1 °F /  20.1 °C 67.5 °F /  19.7 °C 29.76 in /  1007.7 hPa SSW 0.4 mph /  0.6 km/h 2.3 mph /  3.7 km/h 98 % 0.09 in /  2.29 mm
Crab Meadow Weather
Compliments of Weather Underground - 3 mb

Script developed by  Jim McMurry - jmcmurry@mwt.net Adapted for the template by  Wim van der Kuil - Leuven-Template.eu

Weather Terms: Warning - A warning is issued when a hazardous weather or hydrologic event is occurring, imminent or likely. A warning means weather conditions pose a threat to life or property. People in the path of the storm need to take protective action.